sensor_id;sensor_type;location;lat;lon;timestamp;pressure;altitude;pressure_sealevel;temperature;humidity
15050;BME280;7622;42.724;23.250;2024-01-11T00:02:05;95519.78;;;-4.52;100.00
15050;BME280;7622;42.724;23.250;2024-01-11T00:04:33;95490.56;;;-4.70;100.00
15050;BME280;7622;42.724;23.250;2024-01-11T00:07:00;95510.19;;;-4.40;100.00
15050;BME280;7622;42.724;23.250;2024-01-11T00:09:27;95508.31;;;-4.70;100.00
15050;BME280;7622;42.724;23.250;2024-01-11T00:11:53;95502.47;;;-4.72;100.00
15050;BME280;7622;42.724;23.250;2024-01-11T00:14:20;95501.31;;;-4.57;100.00
15050;BME280;7622;42.724;23.250;2024-01-11T00:16:47;95497.81;;;-4.52;100.00
15050;BME280;7622;42.724;23.250;2024-01-11T00:19:13;95502.16;;;-4.57;100.00
15050;BME280;7622;42.724;23.250;2024-01-11T00:21:41;95504.47;;;-4.48;100.00
15050;BME280;7622;42.724;23.250;2024-01-11T00:24:08;95495.84;;;-4.41;100.00
15050;BME280;7622;42.724;23.250;2024-01-11T00:26:35;95457.19;;;-4.87;100.00
15050;BME280;7622;42.724;23.250;2024-01-11T00:29:02;95504.31;;;-4.80;100.00
15050;BME280;7622;42.724;23.250;2024-01-11T00:31:29;95498.41;;;-4.79;100.00
15050;BME280;7622;42.724;23.250;2024-01-11T00:33:56;95500.94;;;-4.79;100.00
15050;BME280;7622;42.724;23.250;2024-01-11T00:36:23;95498.59;;;-4.90;100.00
15050;BME280;7622;42.724;23.250;2024-01-11T00:38:51;95487.06;;;-5.03;100.00
15050;BME280;7622;42.724;23.250;2024-01-11T00:41:18;95497.84;;;-4.55;100.00
15050;BME280;7622;42.724;23.250;2024-01-11T00:43:44;95489.72;;;-4.69;100.00
15050;BME280;7622;42.724;23.250;2024-01-11T00:46:11;95490.13;;;-4.87;100.00
15050;BME280;7622;42.724;23.250;2024-01-11T00:48:38;95486.97;;;-4.98;100.00
15050;BME280;7622;42.724;23.250;2024-01-11T00:51:05;95482.00;;;-5.04;100.00
15050;BME280;7622;42.724;23.250;2024-01-11T00:53:32;95486.97;;;-4.98;100.00
15050;BME280;7622;42.724;23.250;2024-01-11T00:56:00;95480.94;;;-4.93;100.00
15050;BME280;7622;42.724;23.250;2024-01-11T00:58:27;95479.97;;;-4.86;100.00
15050;BME280;7622;42.724;23.250;2024-01-11T01:00:55;95471.03;;;-5.03;100.00
15050;BME280;7622;42.724;23.250;2024-01-11T01:03:21;95479.19;;;-4.89;100.00
15050;BME280;7622;42.724;23.250;2024-01-11T01:05:48;95481.91;;;-4.98;100.00
15050;BME280;7622;42.724;23.250;2024-01-11T01:08:15;95474.53;;;-5.10;100.00
15050;BME280;7622;42.724;23.250;2024-01-11T01:10:42;95481.69;;;-4.88;100.00
15050;BME280;7622;42.724;23.250;2024-01-11T01:13:10;95486.75;;;-4.88;100.00
15050;BME280;7622;42.724;23.250;2024-01-11T01:15:36;95478.25;;;-4.85;100.00
15050;BME280;7622;42.724;23.250;2024-01-11T01:18:03;95475.06;;;-4.93;100.00
15050;BME280;7622;42.724;23.250;2024-01-11T01:20:30;95476.22;;;-5.09;100.00
15050;BME280;7622;42.724;23.250;2024-01-11T01:22:57;95481.66;;;-4.86;100.00
15050;BME280;7622;42.724;23.250;2024-01-11T01:25:25;95482.66;;;-4.93;100.00
15050;BME280;7622;42.724;23.250;2024-01-11T01:27:55;95461.56;;;-4.95;100.00
15050;BME280;7622;42.724;23.250;2024-01-11T01:30:26;95479.19;;;-4.89;100.00
15050;BME280;7622;42.724;23.250;2024-01-11T01:32:53;95473.78;;;-5.14;100.00
15050;BME280;7622;42.724;23.250;2024-01-11T01:35:20;95468.81;;;-5.19;100.00
15050;BME280;7622;42.724;23.250;2024-01-11T01:37:47;95466.28;;;-5.19;100.00
15050;BME280;7622;42.724;23.250;2024-01-11T01:40:13;95457.81;;;-5.18;100.00
15050;BME280;7622;42.724;23.250;2024-01-11T01:42:42;95433.25;;;-5.54;100.00
15050;BME280;7622;42.724;23.250;2024-01-11T01:45:09;95451.09;;;-5.62;100.00
15050;BME280;7622;42.724;23.250;2024-01-11T01:47:37;95445.22;;;-5.65;100.00
15050;BME280;7622;42.724;23.250;2024-01-11T01:50:06;95440.28;;;-5.70;100.00
15050;BME280;7622;42.724;23.250;2024-01-11T01:52:33;95443.56;;;-5.66;100.00
15050;BME280;7622;42.724;23.250;2024-01-11T01:55:01;95445.06;;;-5.56;100.00
15050;BME280;7622;42.724;23.250;2024-01-11T01:57:30;95436.66;;;-5.58;100.00
15050;BME280;7622;42.724;23.250;2024-01-11T02:00:00;95443.78;;;-5.78;100.00
15050;BME280;7622;42.724;23.250;2024-01-11T02:02:27;95434.16;;;-5.60;100.00
15050;BME280;7622;42.724;23.250;2024-01-11T02:04:55;95439.53;;;-5.32;100.00
15050;BME280;7622;42.724;23.250;2024-01-11T02:07:22;95434.22;;;-5.61;100.00
15050;BME280;7622;42.724;23.250;2024-01-11T02:09:50;95430.56;;;-5.46;100.00
15050;BME280;7622;42.724;23.250;2024-01-11T02:12:18;95428.97;;;-5.52;100.00
15050;BME280;7622;42.724;23.250;2024-01-11T02:14:45;95430.56;;;-5.46;100.00
15050;BME280;7622;42.724;23.250;2024-01-11T02:17:12;95432.31;;;-5.51;100.00
15050;BME280;7622;42.724;23.250;2024-01-11T02:19:38;95413.88;;;-5.57;100.00
15050;BME280;7622;42.724;23.250;2024-01-11T02:22:12;95425.13;;;-5.71;100.00
15050;BME280;7622;42.724;23.250;2024-01-11T02:24:43;95424.25;;;-5.70;100.00
15050;BME280;7622;42.724;23.250;2024-01-11T02:27:10;95421.88;;;-5.79;100.00
15050;BME280;7622;42.724;23.250;2024-01-11T02:29:36;95407.19;;;-6.02;100.00
15050;BME280;7622;42.724;23.250;2024-01-11T02:32:03;95427.56;;;-6.13;100.00
15050;BME280;7622;42.724;23.250;2024-01-11T02:34:32;95427.78;;;-5.79;100.00
15050;BME280;7622;42.724;23.250;2024-01-11T02:36:59;95428.31;;;-6.06;100.00
15050;BME280;7622;42.724;23.250;2024-01-11T02:39:26;95429.13;;;-6.04;100.00
15050;BME280;7622;42.724;23.250;2024-01-11T02:41:56;95426.38;;;-5.92;100.00
15050;BME280;7622;42.724;23.250;2024-01-11T02:44:23;95386.38;;;-6.16;100.00
15050;BME280;7622;42.724;23.250;2024-01-11T02:46:50;95418.81;;;-5.93;100.00
15050;BME280;7622;42.724;23.250;2024-01-11T02:49:17;95411.88;;;-5.85;100.00
15050;BME280;7622;42.724;23.250;2024-01-11T02:51:43;95419.44;;;-5.84;100.00
15050;BME280;7622;42.724;23.250;2024-01-11T02:54:11;95413.81;;;-5.97;100.00
15050;BME280;7622;42.724;23.250;2024-01-11T02:56:39;95415.34;;;-5.88;100.00
15050;BME280;7622;42.724;23.250;2024-01-11T02:59:08;95420.91;;;-5.72;100.00
15050;BME280;7622;42.724;23.250;2024-01-11T03:01:35;95412.50;;;-5.73;100.00
15050;BME280;7622;42.724;23.250;2024-01-11T03:04:02;95404.13;;;-5.75;100.00
15050;BME280;7622;42.724;23.250;2024-01-11T03:06:29;95407.94;;;-5.54;100.00
15050;BME280;7622;42.724;23.250;2024-01-11T03:08:55;95407.16;;;-5.58;100.00
15050;BME280;7622;42.724;23.250;2024-01-11T03:11:22;95403.63;;;-5.50;100.00
15050;BME280;7622;42.724;23.250;2024-01-11T03:13:49;95405.72;;;-5.71;100.00
15050;BME280;7622;42.724;23.250;2024-01-11T03:16:17;95408.97;;;-5.66;100.00
15050;BME280;7622;42.724;23.250;2024-01-11T03:18:44;95408.22;;;-5.69;100.00
15050;BME280;7622;42.724;23.250;2024-01-11T03:21:10;95404.44;;;-5.90;100.00
15050;BME280;7622;42.724;23.250;2024-01-11T03:23:37;95406.78;;;-5.82;100.00
15050;BME280;7622;42.724;23.250;2024-01-11T03:26:04;95415.72;;;-5.65;100.00
15050;BME280;7622;42.724;23.250;2024-01-11T03:28:38;95406.25;;;-5.55;100.00
15050;BME280;7622;42.724;23.250;2024-01-11T03:31:04;95405.63;;;-5.66;100.00
15050;BME280;7622;42.724;23.250;2024-01-11T03:33:33;95404.69;;;-5.61;100.00
15050;BME280;7622;42.724;23.250;2024-01-11T03:36:05;95408.06;;;-5.60;100.00
15050;BME280;7622;42.724;23.250;2024-01-11T03:38:32;95408.00;;;-5.59;100.00
15050;BME280;7622;42.724;23.250;2024-01-11T03:40:59;95407.13;;;-5.56;100.00
15050;BME280;7622;42.724;23.250;2024-01-11T03:43:26;95404.19;;;-5.79;100.00
15050;BME280;7622;42.724;23.250;2024-01-11T03:45:52;95370.75;;;-5.93;100.00
15050;BME280;7622;42.724;23.250;2024-01-11T03:48:19;95402.75;;;-5.89;100.00
15050;BME280;7622;42.724;23.250;2024-01-11T03:50:47;95390.75;;;-5.81;100.00
15050;BME280;7622;42.724;23.250;2024-01-11T03:53:14;95390.22;;;-5.95;100.00
15050;BME280;7622;42.724;23.250;2024-01-11T03:55:41;95395.31;;;-5.99;100.00
15050;BME280;7622;42.724;23.250;2024-01-11T03:58:07;95394.44;;;-5.96;100.00
15050;BME280;7622;42.724;23.250;2024-01-11T04:00:34;95389.06;;;-5.81;100.00
15050;BME280;7622;42.724;23.250;2024-01-11T04:03:02;95387.59;;;-5.92;100.00
15050;BME280;7622;42.724;23.250;2024-01-11T04:05:32;95385.56;;;-5.75;100.00
15050;BME280;7622;42.724;23.250;2024-01-11T04:08:04;95384.38;;;-5.58;100.00
15050;BME280;7622;42.724;23.250;2024-01-11T04:10:31;95388.28;;;-5.84;100.00
15050;BME280;7622;42.724;23.250;2024-01-11T04:12:58;95386.31;;;-5.70;100.00
15050;BME280;7622;42.724;23.250;2024-01-11T04:15:25;95385.16;;;-5.95;100.00
15050;BME280;7622;42.724;23.250;2024-01-11T04:17:52;95381.00;;;-6.01;100.00
15050;BME280;7622;42.724;23.250;2024-01-11T04:20:18;95376.59;;;-5.88;100.00
15050;BME280;7622;42.724;23.250;2024-01-11T04:22:45;95373.63;;;-5.67;100.00
15050;BME280;7622;42.724;23.250;2024-01-11T04:25:13;95367.78;;;-5.72;100.00
15050;BME280;7622;42.724;23.250;2024-01-11T04:27:40;95370.31;;;-5.72;100.00
15050;BME280;7622;42.724;23.250;2024-01-11T04:30:07;95368.13;;;-5.87;100.00
15050;BME280;7622;42.724;23.250;2024-01-11T04:32:34;95370.09;;;-6.02;100.00
15050;BME280;7622;42.724;23.250;2024-01-11T04:35:01;95366.97;;;-5.73;100.00
15050;BME280;7622;42.724;23.250;2024-01-11T04:37:28;95373.91;;;-5.82;100.00
15050;BME280;7622;42.724;23.250;2024-01-11T04:39:54;95379.19;;;-5.93;100.00
15050;BME280;7622;42.724;23.250;2024-01-11T04:42:26;95342.56;;;-6.17;100.00
15050;BME280;7622;42.724;23.250;2024-01-11T04:44:54;95384.88;;;-5.82;100.00
15050;BME280;7622;42.724;23.250;2024-01-11T04:47:24;95384.59;;;-5.68;100.00
15050;BME280;7622;42.724;23.250;2024-01-11T04:49:52;95391.81;;;-5.91;100.00
15050;BME280;7622;42.724;23.250;2024-01-11T04:52:19;95386.44;;;-5.76;100.00
15050;BME280;7622;42.724;23.250;2024-01-11T04:54:46;95386.31;;;-5.70;100.00
15050;BME280;7622;42.724;23.250;2024-01-11T04:57:11;95384.25;;;-5.93;100.00
15050;BME280;7622;42.724;23.250;2024-01-11T04:59:39;95386.47;;;-5.79;100.00
15050;BME280;7622;42.724;23.250;2024-01-11T05:02:06;95386.56;;;-5.82;100.00
15050;BME280;7622;42.724;23.250;2024-01-11T05:04:33;95375.09;;;-5.99;100.00
15050;BME280;7622;42.724;23.250;2024-01-11T05:07:00;95388.41;;;-5.90;100.00
15050;BME280;7622;42.724;23.250;2024-01-11T05:09:27;95384.19;;;-5.88;100.00
15050;BME280;7622;42.724;23.250;2024-01-11T05:11:53;95383.41;;;-5.93;100.00
15050;BME280;7622;42.724;23.250;2024-01-11T05:14:20;95382.97;;;-6.15;100.00
15050;BME280;7622;42.724;23.250;2024-01-11T05:16:48;95373.97;;;-6.30;100.00
15050;BME280;7622;42.724;23.250;2024-01-11T05:19:15;95378.28;;;-6.37;100.00
15050;BME280;7622;42.724;23.250;2024-01-11T05:21:42;95369.78;;;-6.32;100.00
15050;BME280;7622;42.724;23.250;2024-01-11T05:24:09;95362.81;;;-6.20;100.00
15050;BME280;7622;42.724;23.250;2024-01-11T05:26:35;95351.13;;;-6.25;100.00
15050;BME280;7622;42.724;23.250;2024-01-11T05:29:02;95352.31;;;-6.43;100.00
15050;BME280;7622;42.724;23.250;2024-01-11T05:31:30;95362.09;;;-6.25;100.00
15050;BME280;7622;42.724;23.250;2024-01-11T05:33:58;95367.84;;;-6.17;100.00
15050;BME280;7622;42.724;23.250;2024-01-11T05:36:25;95357.28;;;-5.94;100.00
15050;BME280;7622;42.724;23.250;2024-01-11T05:38:52;95360.44;;;-5.84;100.00
15050;BME280;7622;42.724;23.250;2024-01-11T05:41:19;95351.34;;;-5.91;100.00
15050;BME280;7622;42.724;23.250;2024-01-11T05:43:45;95358.94;;;-5.91;100.00
15050;BME280;7622;42.724;23.250;2024-01-11T05:46:12;95352.56;;;-6.11;100.00
15050;BME280;7622;42.724;23.250;2024-01-11T05:48:39;95347.41;;;-6.06;100.00
15050;BME280;7622;42.724;23.250;2024-01-11T05:51:08;95341.50;;;-6.05;100.00
15050;BME280;7622;42.724;23.250;2024-01-11T05:53:34;95343.03;;;-5.97;100.00
15050;BME280;7622;42.724;23.250;2024-01-11T05:56:01;95342.22;;;-5.99;100.00
15050;BME280;7622;42.724;23.250;2024-01-11T05:58:28;95335.44;;;-5.97;100.00
15050;BME280;7622;42.724;23.250;2024-01-11T06:00:55;95337.16;;;-5.99;100.00
15050;BME280;7622;42.724;23.250;2024-01-11T06:03:22;95335.25;;;-5.87;100.00
15050;BME280;7622;42.724;23.250;2024-01-11T06:05:49;95338.38;;;-5.76;100.00
15050;BME280;7622;42.724;23.250;2024-01-11T06:08:17;95324.06;;;-5.77;100.00
15050;BME280;7622;42.724;23.250;2024-01-11T06:10:43;95334.31;;;-5.85;100.00
15050;BME280;7622;42.724;23.250;2024-01-11T06:13:10;95336.59;;;-5.71;100.00
15050;BME280;7622;42.724;23.250;2024-01-11T06:15:37;95325.34;;;-5.98;100.00
15050;BME280;7622;42.724;23.250;2024-01-11T06:18:04;95335.84;;;-5.76;100.00
15050;BME280;7622;42.724;23.250;2024-01-11T06:20:31;95339.66;;;-5.57;100.00
15050;BME280;7622;42.724;23.250;2024-01-11T06:22:57;95332.72;;;-5.87;100.00
15050;BME280;7622;42.724;23.250;2024-01-11T06:25:25;95308.72;;;-6.10;100.00
15050;BME280;7622;42.724;23.250;2024-01-11T06:27:53;95326.19;;;-5.98;100.00
15050;BME280;7622;42.724;23.250;2024-01-11T06:30:20;95321.84;;;-5.91;100.00
15050;BME280;7622;42.724;23.250;2024-01-11T06:32:47;95324.25;;;-5.86;100.00
15050;BME280;7622;42.724;23.250;2024-01-11T06:35:13;95327.19;;;-5.66;100.00
15050;BME280;7622;42.724;23.250;2024-01-11T06:37:40;95321.13;;;-5.58;100.00
15050;BME280;7622;42.724;23.250;2024-01-11T06:40:07;95312.91;;;-5.29;100.00
15050;BME280;7622;42.724;23.250;2024-01-11T06:42:36;95310.56;;;-5.36;100.00
15050;BME280;7622;42.724;23.250;2024-01-11T06:45:03;95319.22;;;-5.09;100.00
15050;BME280;7622;42.724;23.250;2024-01-11T06:47:30;95320.22;;;-4.80;100.00
15050;BME280;7622;42.724;23.250;2024-01-11T06:49:56;95310.59;;;-4.31;100.00
15050;BME280;7622;42.724;23.250;2024-01-11T06:52:23;95311.03;;;-3.85;100.00
15050;BME280;7622;42.724;23.250;2024-01-11T06:54:50;95304.47;;;-3.33;100.00
15050;BME280;7622;42.724;23.250;2024-01-11T06:57:17;95312.91;;;-2.26;100.00
15050;BME280;7622;42.724;23.250;2024-01-11T06:59:45;95314.16;;;-2.38;100.00
15050;BME280;7622;42.724;23.250;2024-01-11T07:02:12;95322.38;;;-2.29;100.00
15050;BME280;7622;42.724;23.250;2024-01-11T07:04:43;95313.56;;;-1.94;100.00
15050;BME280;7622;42.724;23.250;2024-01-11T07:07:10;95321.09;;;-1.68;100.00
15050;BME280;7622;42.724;23.250;2024-01-11T07:09:36;95321.88;;;-1.43;100.00
15050;BME280;7622;42.724;23.250;2024-01-11T07:12:04;95317.84;;;-1.03;100.00
15050;BME280;7622;42.724;23.250;2024-01-11T07:14:31;95323.97;;;-1.07;100.00
15050;BME280;7622;42.724;23.250;2024-01-11T07:16:59;95317.88;;;-0.40;100.00
15050;BME280;7622;42.724;23.250;2024-01-11T07:19:26;95317.31;;;-0.26;98.76
15050;BME280;7622;42.724;23.250;2024-01-11T07:21:53;95314.25;;;-0.14;98.24
15050;BME280;7622;42.724;23.250;2024-01-11T07:24:20;95318.81;;;0.39;86.01
15050;BME280;7622;42.724;23.250;2024-01-11T07:26:46;95268.94;;;0.12;81.92
15050;BME280;7622;42.724;23.250;2024-01-11T07:29:13;95314.38;;;1.00;75.81
15050;BME280;7622;42.724;23.250;2024-01-11T07:31:40;95312.22;;;0.91;71.03
15050;BME280;7622;42.724;23.250;2024-01-11T07:34:08;95308.78;;;0.73;71.71
15050;BME280;7622;42.724;23.250;2024-01-11T07:36:35;95308.38;;;1.18;69.57
15050;BME280;7622;42.724;23.250;2024-01-11T07:39:02;95307.38;;;0.85;69.34
15050;BME280;7622;42.724;23.250;2024-01-11T07:41:30;95312.78;;;1.16;68.00
15050;BME280;7622;42.724;23.250;2024-01-11T07:44:00;95308.28;;;1.03;68.45
15050;BME280;7622;42.724;23.250;2024-01-11T07:46:29;95313.53;;;1.00;67.70
15050;BME280;7622;42.724;23.250;2024-01-11T07:48:56;95314.31;;;1.02;68.83
15050;BME280;7622;42.724;23.250;2024-01-11T07:51:25;95305.84;;;1.18;67.87
15050;BME280;7622;42.724;23.250;2024-01-11T07:53:53;95296.13;;;1.44;64.78
15050;BME280;7622;42.724;23.250;2024-01-11T07:56:20;95308.63;;;1.67;64.16
15050;BME280;7622;42.724;23.250;2024-01-11T07:58:47;95298.69;;;1.25;63.92
15050;BME280;7622;42.724;23.250;2024-01-11T08:01:15;95298.69;;;1.61;64.34
15050;BME280;7622;42.724;23.250;2024-01-11T08:03:42;95303.50;;;1.67;63.06
15050;BME280;7622;42.724;23.250;2024-01-11T08:06:10;95269.84;;;1.57;63.25
15050;BME280;7622;42.724;23.250;2024-01-11T08:08:38;95302.66;;;2.01;61.37
15050;BME280;7622;42.724;23.250;2024-01-11T08:11:06;95297.44;;;2.37;61.19
15050;BME280;7622;42.724;23.250;2024-01-11T08:13:33;95298.13;;;2.23;60.88
15050;BME280;7622;42.724;23.250;2024-01-11T08:16:03;95296.97;;;2.29;61.04
15050;BME280;7622;42.724;23.250;2024-01-11T08:18:30;95278.78;;;2.66;59.27
15050;BME280;7622;42.724;23.250;2024-01-11T08:20:57;95283.44;;;3.38;58.47
15050;BME280;7622;42.724;23.250;2024-01-11T08:23:23;95275.16;;;3.79;55.88
15050;BME280;7622;42.724;23.250;2024-01-11T08:25:52;95283.19;;;3.43;57.03
15050;BME280;7622;42.724;23.250;2024-01-11T08:28:19;95281.53;;;3.26;56.50
15050;BME280;7622;42.724;23.250;2024-01-11T08:30:46;95283.44;;;3.38;56.47
15050;BME280;7622;42.724;23.250;2024-01-11T08:33:13;95280.19;;;3.50;56.04
15050;BME280;7622;42.724;23.250;2024-01-11T08:35:40;95286.34;;;3.01;57.06
15050;BME280;7622;42.724;23.250;2024-01-11T08:38:07;95285.34;;;2.88;57.65
15050;BME280;7622;42.724;23.250;2024-01-11T08:40:33;95289.56;;;3.20;57.65
15050;BME280;7622;42.724;23.250;2024-01-11T08:43:02;95287.63;;;3.55;56.39
15050;BME280;7622;42.724;23.250;2024-01-11T08:45:29;95286.84;;;3.69;56.38
15050;BME280;7622;42.724;23.250;2024-01-11T08:47:56;95282.47;;;3.71;55.74
15050;BME280;7622;42.724;23.250;2024-01-11T08:50:23;95282.09;;;3.77;56.73
15050;BME280;7622;42.724;23.250;2024-01-11T08:52:50;95282.03;;;4.36;55.11
15050;BME280;7622;42.724;23.250;2024-01-11T08:55:16;95274.66;;;4.30;54.63
15050;BME280;7622;42.724;23.250;2024-01-11T08:57:43;95274.50;;;4.48;54.34
15050;BME280;7622;42.724;23.250;2024-01-11T09:00:12;95269.88;;;5.36;53.47
15050;BME280;7622;42.724;23.250;2024-01-11T09:02:42;95246.66;;;4.83;52.95
15050;BME280;7622;42.724;23.250;2024-01-11T09:05:09;95251.66;;;4.98;53.38
15050;BME280;7622;42.724;23.250;2024-01-11T09:07:36;95258.75;;;4.95;53.04
15050;BME280;7622;42.724;23.250;2024-01-11T09:10:04;95244.16;;;4.81;53.68
15050;BME280;7622;42.724;23.250;2024-01-11T09:12:31;95255.28;;;4.82;53.62
15050;BME280;7622;42.724;23.250;2024-01-11T09:14:59;95250.25;;;4.52;54.15
15050;BME280;7622;42.724;23.250;2024-01-11T09:17:27;95240.47;;;4.71;53.84
15050;BME280;7622;42.724;23.250;2024-01-11T09:19:54;95216.25;;;4.75;53.24
15050;BME280;7622;42.724;23.250;2024-01-11T09:22:21;95227.78;;;4.96;53.57
15050;BME280;7622;42.724;23.250;2024-01-11T09:24:47;95210.56;;;4.56;53.52
15050;BME280;7622;42.724;23.250;2024-01-11T09:27:14;95229.22;;;5.27;53.40
15050;BME280;7622;42.724;23.250;2024-01-11T09:29:44;95224.16;;;4.99;54.38
15050;BME280;7622;42.724;23.250;2024-01-11T09:32:10;95221.38;;;5.16;53.88
15050;BME280;7622;42.724;23.250;2024-01-11T09:34:39;95215.28;;;4.90;54.35
15050;BME280;7622;42.724;23.250;2024-01-11T09:37:06;95218.41;;;4.95;53.75
15050;BME280;7622;42.724;23.250;2024-01-11T09:39:34;95213.28;;;5.35;53.31
15050;BME280;7622;42.724;23.250;2024-01-11T09:42:07;95209.91;;;5.47;53.85
15050;BME280;7622;42.724;23.250;2024-01-11T09:44:36;95205.44;;;5.63;52.86
15050;BME280;7622;42.724;23.250;2024-01-11T09:47:05;95198.06;;;5.97;53.25
15050;BME280;7622;42.724;23.250;2024-01-11T09:49:33;95192.88;;;5.71;52.33
15050;BME280;7622;42.724;23.250;2024-01-11T09:52:02;95186.88;;;5.71;51.98
15050;BME280;7622;42.724;23.250;2024-01-11T09:54:29;95177.69;;;5.54;52.38
15050;BME280;7622;42.724;23.250;2024-01-11T09:56:57;95174.94;;;5.82;51.76
15050;BME280;7622;42.724;23.250;2024-01-11T09:59:25;95171.38;;;5.98;51.17
15050;BME280;7622;42.724;23.250;2024-01-11T10:01:52;95171.34;;;5.33;52.23
15050;BME280;7622;42.724;23.250;2024-01-11T10:04:20;95169.91;;;5.29;52.94
15050;BME280;7622;42.724;23.250;2024-01-11T10:06:48;95155.03;;;5.20;54.04
15050;BME280;7622;42.724;23.250;2024-01-11T10:09:17;95159.47;;;5.18;53.29
15050;BME280;7622;42.724;23.250;2024-01-11T10:11:45;95165.44;;;5.58;52.93
15050;BME280;7622;42.724;23.250;2024-01-11T10:14:12;95131.84;;;5.72;53.48
15050;BME280;7622;42.724;23.250;2024-01-11T10:16:41;95149.16;;;5.57;53.24
15050;BME280;7622;42.724;23.250;2024-01-11T10:19:08;95142.56;;;5.66;52.48
15050;BME280;7622;42.724;23.250;2024-01-11T10:21:37;95142.41;;;5.29;53.39
15050;BME280;7622;42.724;23.250;2024-01-11T10:24:05;95131.22;;;5.68;53.00
15050;BME280;7622;42.724;23.250;2024-01-11T10:26:33;95095.72;;;5.21;52.29
15050;BME280;7622;42.724;23.250;2024-01-11T10:29:00;95076.59;;;5.38;52.85
15050;BME280;7622;42.724;23.250;2024-01-11T10:31:28;95117.63;;;5.66;52.45
15050;BME280;7622;42.724;23.250;2024-01-11T10:33:55;95092.88;;;6.02;51.46
15050;BME280;7622;42.724;23.250;2024-01-11T10:36:22;95106.91;;;5.85;52.32
15050;BME280;7622;42.724;23.250;2024-01-11T10:38:49;95098.53;;;5.56;51.88
15050;BME280;7622;42.724;23.250;2024-01-11T10:41:18;95101.63;;;5.61;52.49
15050;BME280;7622;42.724;23.250;2024-01-11T10:43:48;95096.06;;;5.67;54.71
15050;BME280;7622;42.724;23.250;2024-01-11T10:46:15;95101.75;;;5.85;52.64
15050;BME280;7622;42.724;23.250;2024-01-11T10:48:50;95093.09;;;5.99;52.74
15050;BME280;7622;42.724;23.250;2024-01-11T10:51:22;95079.47;;;5.97;52.64
15050;BME280;7622;42.724;23.250;2024-01-11T10:53:52;95082.97;;;6.45;52.63
15050;BME280;7622;42.724;23.250;2024-01-11T10:56:22;95081.31;;;6.20;52.17
15050;BME280;7622;42.724;23.250;2024-01-11T10:58:53;95069.47;;;6.41;52.96
15050;BME280;7622;42.724;23.250;2024-01-11T11:01:20;95062.84;;;6.50;52.15
15050;BME280;7622;42.724;23.250;2024-01-11T11:03:50;95057.59;;;7.21;51.91
15050;BME280;7622;42.724;23.250;2024-01-11T11:06:20;95049.97;;;7.99;50.97
15050;BME280;7622;42.724;23.250;2024-01-11T11:08:49;95047.69;;;8.50;48.99
15050;BME280;7622;42.724;23.250;2024-01-11T11:11:17;95037.63;;;7.80;50.87
15050;BME280;7622;42.724;23.250;2024-01-11T11:13:46;94992.13;;;7.44;50.60
15050;BME280;7622;42.724;23.250;2024-01-11T11:16:16;95024.44;;;7.72;51.25
15050;BME280;7622;42.724;23.250;2024-01-11T11:18:46;95025.56;;;7.35;51.94
15050;BME280;7622;42.724;23.250;2024-01-11T11:21:15;95023.50;;;7.51;52.06
15050;BME280;7622;42.724;23.250;2024-01-11T11:23:43;95012.34;;;7.50;51.49
15050;BME280;7622;42.724;23.250;2024-01-11T11:26:16;95007.16;;;7.39;51.99
15050;BME280;7622;42.724;23.250;2024-01-11T11:28:44;94998.91;;;7.34;52.03
15050;BME280;7622;42.724;23.250;2024-01-11T11:31:13;94998.13;;;6.99;52.04
15050;BME280;7622;42.724;23.250;2024-01-11T11:34:01;94992.28;;;6.97;53.53
15050;BME280;7622;42.724;23.250;2024-01-11T11:36:29;94984.56;;;7.19;53.49
15050;BME280;7622;42.724;23.250;2024-01-11T11:38:57;94976.41;;;7.59;51.95
15050;BME280;7622;42.724;23.250;2024-01-11T11:41:26;94966.16;;;7.68;52.49
15050;BME280;7622;42.724;23.250;2024-01-11T11:43:53;94969.78;;;7.55;52.86
15050;BME280;7622;42.724;23.250;2024-01-11T11:46:20;94974.75;;;7.58;52.96
15050;BME280;7622;42.724;23.250;2024-01-11T11:48:50;94965.81;;;7.39;53.12
15050;BME280;7622;42.724;23.250;2024-01-11T11:51:25;94955.00;;;7.23;54.65
15050;BME280;7622;42.724;23.250;2024-01-11T11:53:55;94963.22;;;7.17;54.43
15050;BME280;7622;42.724;23.250;2024-01-11T11:56:24;94958.16;;;7.27;54.39
15050;BME280;7622;42.724;23.250;2024-01-11T11:58:52;94951.13;;;7.62;54.13
15050;BME280;7622;42.724;23.250;2024-01-11T12:01:20;94948.78;;;7.59;54.90
15050;BME280;7622;42.724;23.250;2024-01-11T12:03:47;94900.13;;;6.86;55.84
15050;BME280;7622;42.724;23.250;2024-01-11T12:06:16;94935.72;;;7.05;56.84
15050;BME280;7622;42.724;23.250;2024-01-11T12:08:46;94893.13;;;6.53;57.41
15050;BME280;7622;42.724;23.250;2024-01-11T12:11:13;94919.22;;;6.72;58.09
15050;BME280;7622;42.724;23.250;2024-01-11T12:13:40;94919.88;;;7.09;57.44
15050;BME280;7622;42.724;23.250;2024-01-11T12:16:06;94911.66;;;7.16;59.25
15050;BME280;7622;42.724;23.250;2024-01-11T12:18:33;94911.09;;;7.12;58.37
15050;BME280;7622;42.724;23.250;2024-01-11T12:21:00;94903.31;;;7.23;57.67
15050;BME280;7622;42.724;23.250;2024-01-11T12:23:27;94902.25;;;7.03;58.13
15050;BME280;7622;42.724;23.250;2024-01-11T12:25:56;94902.66;;;6.64;57.51
15050;BME280;7622;42.724;23.250;2024-01-11T12:28:23;94880.50;;;6.26;60.12
15050;BME280;7622;42.724;23.250;2024-01-11T12:30:50;94898.22;;;5.83;62.67
15050;BME280;7622;42.724;23.250;2024-01-11T12:33:17;94896.16;;;5.88;63.88
15050;BME280;7622;42.724;23.250;2024-01-11T12:35:44;94883.69;;;5.59;64.45
15050;BME280;7622;42.724;23.250;2024-01-11T12:38:11;94878.84;;;5.18;72.48
15050;BME280;7622;42.724;23.250;2024-01-11T12:40:38;94849.03;;;4.77;79.88
15050;BME280;7622;42.724;23.250;2024-01-11T12:43:07;94866.31;;;4.75;83.07
15050;BME280;7622;42.724;23.250;2024-01-11T12:45:35;94871.06;;;4.56;87.77
15050;BME280;7622;42.724;23.250;2024-01-11T12:48:02;94862.78;;;4.51;90.90
15050;BME280;7622;42.724;23.250;2024-01-11T12:50:30;94857.97;;;4.33;92.22
15050;BME280;7622;42.724;23.250;2024-01-11T12:53:06;94862.78;;;4.25;96.71
15050;BME280;7622;42.724;23.250;2024-01-11T12:55:33;94861.72;;;4.15;93.58
15050;BME280;7622;42.724;23.250;2024-01-11T12:58:04;94849.06;;;4.00;93.31
15050;BME280;7622;42.724;23.250;2024-01-11T13:00:34;94851.22;;;3.93;95.58
15050;BME280;7622;42.724;23.250;2024-01-11T13:03:04;94850.94;;;3.71;97.48